sensor_id;sensor_type;location;lat;lon;timestamp;temperature;humidity
79140;HTU21D;68546;59.142;37.948;2023-03-20T00:02:03;4.79;43.08
79140;HTU21D;68546;59.142;37.948;2023-03-20T00:04:30;4.79;43.03
79140;HTU21D;68546;59.142;37.948;2023-03-20T00:06:56;4.79;43.07
79140;HTU21D;68546;59.142;37.948;2023-03-20T00:09:23;4.80;43.11
79140;HTU21D;68546;59.142;37.948;2023-03-20T00:11:52;4.80;43.15
79140;HTU21D;68546;59.142;37.948;2023-03-20T00:14:21;4.82;43.12
79140;HTU21D;68546;59.142;37.948;2023-03-20T00:16:50;4.82;43.05
79140;HTU21D;68546;59.142;37.948;2023-03-20T00:19:24;4.84;43.03
79140;HTU21D;68546;59.142;37.948;2023-03-20T00:21:53;4.83;43.00
79140;HTU21D;68546;59.142;37.948;2023-03-20T00:24:20;4.82;42.94
79140;HTU21D;68546;59.142;37.948;2023-03-20T00:26:48;4.81;42.91
79140;HTU21D;68546;59.142;37.948;2023-03-20T00:29:25;4.81;42.90
79140;HTU21D;68546;59.142;37.948;2023-03-20T00:31:52;4.79;42.91
79140;HTU21D;68546;59.142;37.948;2023-03-20T00:34:21;4.79;42.99
79140;HTU21D;68546;59.142;37.948;2023-03-20T00:36:49;4.80;43.06
79140;HTU21D;68546;59.142;37.948;2023-03-20T00:39:16;4.81;43.11
79140;HTU21D;68546;59.142;37.948;2023-03-20T00:42:11;4.82;43.10
79140;HTU21D;68546;59.142;37.948;2023-03-20T00:44:53;4.82;43.06
79140;HTU21D;68546;59.142;37.948;2023-03-20T00:47:23;4.82;42.97
79140;HTU21D;68546;59.142;37.948;2023-03-20T00:49:51;4.83;42.99
79140;HTU21D;68546;59.142;37.948;2023-03-20T00:52:20;4.83;42.93
79140;HTU21D;68546;59.142;37.948;2023-03-20T00:54:47;4.82;42.93
79140;HTU21D;68546;59.142;37.948;2023-03-20T00:57:16;4.82;42.96
79140;HTU21D;68546;59.142;37.948;2023-03-20T01:02:28;4.82;42.87
79140;HTU21D;68546;59.142;37.948;2023-03-20T01:04:54;4.83;42.88
79140;HTU21D;68546;59.142;37.948;2023-03-20T01:07:21;4.83;42.86
79140;HTU21D;68546;59.142;37.948;2023-03-20T01:09:47;4.82;42.84
79140;HTU21D;68546;59.142;37.948;2023-03-20T01:12:14;4.82;42.83
79140;HTU21D;68546;59.142;37.948;2023-03-20T01:14:42;4.82;42.79
79140;HTU21D;68546;59.142;37.948;2023-03-20T01:17:17;4.82;42.84
79140;HTU21D;68546;59.142;37.948;2023-03-20T01:19:43;4.80;42.81
79140;HTU21D;68546;59.142;37.948;2023-03-20T01:22:12;4.81;42.80
79140;HTU21D;68546;59.142;37.948;2023-03-20T01:24:43;4.80;42.83
79140;HTU21D;68546;59.142;37.948;2023-03-20T01:27:14;4.80;42.81
79140;HTU21D;68546;59.142;37.948;2023-03-20T01:29:41;4.79;42.77
79140;HTU21D;68546;59.142;37.948;2023-03-20T01:32:15;4.81;42.78
79140;HTU21D;68546;59.142;37.948;2023-03-20T01:34:45;4.80;42.77
79140;HTU21D;68546;59.142;37.948;2023-03-20T01:37:21;4.80;42.80
79140;HTU21D;68546;59.142;37.948;2023-03-20T01:39:49;4.80;42.81
79140;HTU21D;68546;59.142;37.948;2023-03-20T01:42:16;4.80;42.81
79140;HTU21D;68546;59.142;37.948;2023-03-20T01:44:43;4.80;42.83
79140;HTU21D;68546;59.142;37.948;2023-03-20T01:47:19;4.81;42.86
79140;HTU21D;68546;59.142;37.948;2023-03-20T01:50:27;4.81;42.87
79140;HTU21D;68546;59.142;37.948;2023-03-20T01:53:12;4.80;42.87
79140;HTU21D;68546;59.142;37.948;2023-03-20T01:55:45;4.81;42.87
79140;HTU21D;68546;59.142;37.948;2023-03-20T01:58:33;4.80;42.85
79140;HTU21D;68546;59.142;37.948;2023-03-20T02:01:03;4.81;42.88
79140;HTU21D;68546;59.142;37.948;2023-03-20T02:03:32;4.80;42.82
79140;HTU21D;68546;59.142;37.948;2023-03-20T02:06:29;4.81;42.77
79140;HTU21D;68546;59.142;37.948;2023-03-20T02:09:08;4.80;42.81
79140;HTU21D;68546;59.142;37.948;2023-03-20T02:11:41;4.81;42.81
79140;HTU21D;68546;59.142;37.948;2023-03-20T02:14:08;4.80;42.81
79140;HTU21D;68546;59.142;37.948;2023-03-20T02:16:53;4.81;42.77
79140;HTU21D;68546;59.142;37.948;2023-03-20T02:20:02;4.80;42.69
79140;HTU21D;68546;59.142;37.948;2023-03-20T02:25:44;4.77;42.63
79140;HTU21D;68546;59.142;37.948;2023-03-20T02:45:15;4.73;42.67
79140;HTU21D;68546;59.142;37.948;2023-03-20T02:47:51;4.71;42.71
79140;HTU21D;68546;59.142;37.948;2023-03-20T02:53:42;4.69;42.69
79140;HTU21D;68546;59.142;37.948;2023-03-20T02:56:21;4.68;42.68
79140;HTU21D;68546;59.142;37.948;2023-03-20T03:01:43;4.67;42.71
79140;HTU21D;68546;59.142;37.948;2023-03-20T03:04:17;4.66;42.74
79140;HTU21D;68546;59.142;37.948;2023-03-20T03:06:48;4.66;42.78
79140;HTU21D;68546;59.142;37.948;2023-03-20T03:09:23;4.67;42.80
79140;HTU21D;68546;59.142;37.948;2023-03-20T03:12:03;4.68;42.81
79140;HTU21D;68546;59.142;37.948;2023-03-20T03:14:45;4.67;42.77
79140;HTU21D;68546;59.142;37.948;2023-03-20T03:17:16;4.67;42.74
79140;HTU21D;68546;59.142;37.948;2023-03-20T03:19:47;4.64;42.70
79140;HTU21D;68546;59.142;37.948;2023-03-20T03:22:18;4.65;42.64
79140;HTU21D;68546;59.142;37.948;2023-03-20T03:24:48;4.66;42.65
79140;HTU21D;68546;59.142;37.948;2023-03-20T03:27:27;4.65;42.63
79140;HTU21D;68546;59.142;37.948;2023-03-20T03:29:59;4.66;42.61
79140;HTU21D;68546;59.142;37.948;2023-03-20T03:32:33;4.66;42.65
79140;HTU21D;68546;59.142;37.948;2023-03-20T03:35:02;4.66;42.65
79140;HTU21D;68546;59.142;37.948;2023-03-20T03:40:33;4.66;42.65
79140;HTU21D;68546;59.142;37.948;2023-03-20T03:43:22;4.65;42.65
79140;HTU21D;68546;59.142;37.948;2023-03-20T03:46:08;4.64;42.58
79140;HTU21D;68546;59.142;37.948;2023-03-20T03:48:48;4.63;42.56
79140;HTU21D;68546;59.142;37.948;2023-03-20T03:51:25;4.63;42.62
79140;HTU21D;68546;59.142;37.948;2023-03-20T03:54:06;4.63;42.60
79140;HTU21D;68546;59.142;37.948;2023-03-20T03:56:36;4.64;42.63
79140;HTU21D;68546;59.142;37.948;2023-03-20T03:59:20;4.65;42.61
79140;HTU21D;68546;59.142;37.948;2023-03-20T04:01:50;4.65;42.65
79140;HTU21D;68546;59.142;37.948;2023-03-20T04:04:18;4.67;42.71
79140;HTU21D;68546;59.142;37.948;2023-03-20T04:06:46;4.69;42.74
79140;HTU21D;68546;59.142;37.948;2023-03-20T04:09:12;4.71;42.70
79140;HTU21D;68546;59.142;37.948;2023-03-20T04:11:39;4.74;42.74
79140;HTU21D;68546;59.142;37.948;2023-03-20T04:14:05;4.76;42.67
79140;HTU21D;68546;59.142;37.948;2023-03-20T04:16:32;4.77;42.61
79140;HTU21D;68546;59.142;37.948;2023-03-20T04:18:59;4.80;42.59
79140;HTU21D;68546;59.142;37.948;2023-03-20T04:21:25;4.81;42.55
79140;HTU21D;68546;59.142;37.948;2023-03-20T04:23:52;4.81;42.54
79140;HTU21D;68546;59.142;37.948;2023-03-20T04:26:21;4.83;42.56
79140;HTU21D;68546;59.142;37.948;2023-03-20T04:28:49;4.86;42.49
79140;HTU21D;68546;59.142;37.948;2023-03-20T04:31:35;4.87;42.50
79140;HTU21D;68546;59.142;37.948;2023-03-20T04:34:10;4.88;42.49
79140;HTU21D;68546;59.142;37.948;2023-03-20T04:37:06;4.89;42.52
79140;HTU21D;68546;59.142;37.948;2023-03-20T04:40:03;4.89;42.47
79140;HTU21D;68546;59.142;37.948;2023-03-20T04:42:29;4.88;42.49
79140;HTU21D;68546;59.142;37.948;2023-03-20T04:45:00;4.89;42.50
79140;HTU21D;68546;59.142;37.948;2023-03-20T04:47:28;4.89;42.46
79140;HTU21D;68546;59.142;37.948;2023-03-20T04:49:55;4.89;42.53
79140;HTU21D;68546;59.142;37.948;2023-03-20T04:52:22;4.90;42.58
79140;HTU21D;68546;59.142;37.948;2023-03-20T04:54:48;4.91;42.60
79140;HTU21D;68546;59.142;37.948;2023-03-20T04:57:14;4.92;42.66
79140;HTU21D;68546;59.142;37.948;2023-03-20T04:59:42;4.93;42.68
79140;HTU21D;68546;59.142;37.948;2023-03-20T05:02:08;4.95;42.72
79140;HTU21D;68546;59.142;37.948;2023-03-20T05:04:41;4.97;42.81
79140;HTU21D;68546;59.142;37.948;2023-03-20T05:07:08;5.00;42.85
79140;HTU21D;68546;59.142;37.948;2023-03-20T05:09:43;5.02;42.81
79140;HTU21D;68546;59.142;37.948;2023-03-20T05:12:10;5.06;42.89
79140;HTU21D;68546;59.142;37.948;2023-03-20T05:14:56;5.10;42.92
79140;HTU21D;68546;59.142;37.948;2023-03-20T05:17:32;5.16;42.90
79140;HTU21D;68546;59.142;37.948;2023-03-20T05:20:26;5.20;42.91
79140;HTU21D;68546;59.142;37.948;2023-03-20T05:23:22;5.24;42.91
79140;HTU21D;68546;59.142;37.948;2023-03-20T05:26:17;5.30;42.88
79140;HTU21D;68546;59.142;37.948;2023-03-20T05:29:06;5.34;42.93
79140;HTU21D;68546;59.142;37.948;2023-03-20T05:31:51;5.39;42.87
79140;HTU21D;68546;59.142;37.948;2023-03-20T05:34:30;5.43;42.84
79140;HTU21D;68546;59.142;37.948;2023-03-20T05:37:15;5.49;42.77
79140;HTU21D;68546;59.142;37.948;2023-03-20T05:39:54;5.53;42.74
79140;HTU21D;68546;59.142;37.948;2023-03-20T05:42:44;5.56;42.68
79140;HTU21D;68546;59.142;37.948;2023-03-20T05:45:30;5.61;42.66
79140;HTU21D;68546;59.142;37.948;2023-03-20T05:48:11;5.63;42.61
79140;HTU21D;68546;59.142;37.948;2023-03-20T05:50:41;5.67;42.64
79140;HTU21D;68546;59.142;37.948;2023-03-20T05:53:30;5.72;42.65
79140;HTU21D;68546;59.142;37.948;2023-03-20T05:56:26;5.78;42.62
79140;HTU21D;68546;59.142;37.948;2023-03-20T05:59:11;5.84;42.66
79140;HTU21D;68546;59.142;37.948;2023-03-20T06:02:03;5.90;42.58
79140;HTU21D;68546;59.142;37.948;2023-03-20T06:04:33;5.95;42.56
79140;HTU21D;68546;59.142;37.948;2023-03-20T06:07:34;6.00;42.45
79140;HTU21D;68546;59.142;37.948;2023-03-20T06:10:07;6.06;42.36
79140;HTU21D;68546;59.142;37.948;2023-03-20T06:12:33;6.10;42.37
79140;HTU21D;68546;59.142;37.948;2023-03-20T06:15:00;6.17;42.50
79140;HTU21D;68546;59.142;37.948;2023-03-20T06:17:29;6.26;42.55
79140;HTU21D;68546;59.142;37.948;2023-03-20T06:20:02;6.37;42.58
79140;HTU21D;68546;59.142;37.948;2023-03-20T06:22:29;6.48;42.58
79140;HTU21D;68546;59.142;37.948;2023-03-20T06:24:56;6.58;42.52
79140;HTU21D;68546;59.142;37.948;2023-03-20T06:27:28;6.70;42.49
79140;HTU21D;68546;59.142;37.948;2023-03-20T06:29:56;6.83;42.43
79140;HTU21D;68546;59.142;37.948;2023-03-20T06:32:29;6.96;42.41
79140;HTU21D;68546;59.142;37.948;2023-03-20T06:34:58;7.09;42.35
79140;HTU21D;68546;59.142;37.948;2023-03-20T06:37:24;7.19;42.25
79140;HTU21D;68546;59.142;37.948;2023-03-20T06:39:59;7.29;42.14
79140;HTU21D;68546;59.142;37.948;2023-03-20T06:42:26;7.38;42.10
79140;HTU21D;68546;59.142;37.948;2023-03-20T06:44:54;7.48;42.07
79140;HTU21D;68546;59.142;37.948;2023-03-20T06:47:44;7.57;41.93
79140;HTU21D;68546;59.142;37.948;2023-03-20T06:50:13;7.63;41.85
79140;HTU21D;68546;59.142;37.948;2023-03-20T06:52:40;7.67;41.75
79140;HTU21D;68546;59.142;37.948;2023-03-20T06:55:34;7.71;41.67
79140;HTU21D;68546;59.142;37.948;2023-03-20T06:58:02;7.75;41.63
79140;HTU21D;68546;59.142;37.948;2023-03-20T07:00:30;7.82;41.59
79140;HTU21D;68546;59.142;37.948;2023-03-20T07:03:01;7.89;41.58
79140;HTU21D;68546;59.142;37.948;2023-03-20T07:05:27;7.98;41.62
79140;HTU21D;68546;59.142;37.948;2023-03-20T07:07:55;8.06;41.53
79140;HTU21D;68546;59.142;37.948;2023-03-20T07:10:22;8.14;41.39
79140;HTU21D;68546;59.142;37.948;2023-03-20T07:12:51;8.19;41.15
79140;HTU21D;68546;59.142;37.948;2023-03-20T07:15:18;8.18;40.94
79140;HTU21D;68546;59.142;37.948;2023-03-20T07:17:45;8.17;40.78
79140;HTU21D;68546;59.142;37.948;2023-03-20T07:20:13;8.13;40.71
79140;HTU21D;68546;59.142;37.948;2023-03-20T07:22:40;8.12;40.72
79140;HTU21D;68546;59.142;37.948;2023-03-20T07:25:20;8.09;40.68
79140;HTU21D;68546;59.142;37.948;2023-03-20T07:27:46;8.05;40.62
79140;HTU21D;68546;59.142;37.948;2023-03-20T07:30:17;8.04;40.64
79140;HTU21D;68546;59.142;37.948;2023-03-20T07:32:45;8.03;40.65
79140;HTU21D;68546;59.142;37.948;2023-03-20T07:35:16;8.04;40.59
79140;HTU21D;68546;59.142;37.948;2023-03-20T07:37:44;8.04;40.52
79140;HTU21D;68546;59.142;37.948;2023-03-20T07:40:11;8.06;40.55
79140;HTU21D;68546;59.142;37.948;2023-03-20T07:43:04;8.11;40.53
79140;HTU21D;68546;59.142;37.948;2023-03-20T07:45:54;8.14;40.59
79140;HTU21D;68546;59.142;37.948;2023-03-20T07:48:21;8.18;40.55
79140;HTU21D;68546;59.142;37.948;2023-03-20T07:50:47;8.21;40.51
79140;HTU21D;68546;59.142;37.948;2023-03-20T07:53:16;8.24;40.45
79140;HTU21D;68546;59.142;37.948;2023-03-20T07:55:43;8.31;40.47
79140;HTU21D;68546;59.142;37.948;2023-03-20T07:58:11;8.35;40.41
79140;HTU21D;68546;59.142;37.948;2023-03-20T08:00:38;8.42;40.40
79140;HTU21D;68546;59.142;37.948;2023-03-20T08:03:04;8.46;40.36
79140;HTU21D;68546;59.142;37.948;2023-03-20T08:05:32;8.53;40.20
79140;HTU21D;68546;59.142;37.948;2023-03-20T08:08:00;8.57;40.01
79140;HTU21D;68546;59.142;37.948;2023-03-20T08:10:28;8.60;40.03
79140;HTU21D;68546;59.142;37.948;2023-03-20T08:12:55;8.65;39.98
79140;HTU21D;68546;59.142;37.948;2023-03-20T08:15:21;8.68;39.94
79140;HTU21D;68546;59.142;37.948;2023-03-20T08:17:49;8.74;39.82
79140;HTU21D;68546;59.142;37.948;2023-03-20T08:20:17;8.78;39.71
79140;HTU21D;68546;59.142;37.948;2023-03-20T08:22:45;8.79;39.62
79140;HTU21D;68546;59.142;37.948;2023-03-20T08:25:13;8.82;39.59
79140;HTU21D;68546;59.142;37.948;2023-03-20T08:27:40;8.86;39.50
79140;HTU21D;68546;59.142;37.948;2023-03-20T08:30:07;8.90;39.47
79140;HTU21D;68546;59.142;37.948;2023-03-20T08:32:35;8.93;39.33
79140;HTU21D;68546;59.142;37.948;2023-03-20T08:35:02;8.96;39.21
79140;HTU21D;68546;59.142;37.948;2023-03-20T08:37:29;9.00;39.18
79140;HTU21D;68546;59.142;37.948;2023-03-20T08:39:55;9.07;39.18
79140;HTU21D;68546;59.142;37.948;2023-03-20T08:42:22;9.09;39.11
79140;HTU21D;68546;59.142;37.948;2023-03-20T08:44:48;9.12;39.04
79140;HTU21D;68546;59.142;37.948;2023-03-20T08:47:15;9.11;38.94
79140;HTU21D;68546;59.142;37.948;2023-03-20T08:49:42;9.11;38.88
79140;HTU21D;68546;59.142;37.948;2023-03-20T08:52:09;9.11;38.85
79140;HTU21D;68546;59.142;37.948;2023-03-20T08:54:36;9.08;38.86
79140;HTU21D;68546;59.142;37.948;2023-03-20T08:57:02;9.09;38.93
79140;HTU21D;68546;59.142;37.948;2023-03-20T08:59:29;9.10;38.91
79140;HTU21D;68546;59.142;37.948;2023-03-20T09:01:56;9.14;39.00
79140;HTU21D;68546;59.142;37.948;2023-03-20T09:04:22;9.16;39.00
79140;HTU21D;68546;59.142;37.948;2023-03-20T09:06:49;9.18;39.01
79140;HTU21D;68546;59.142;37.948;2023-03-20T09:09:15;9.22;39.00
79140;HTU21D;68546;59.142;37.948;2023-03-20T09:11:44;9.27;39.06
79140;HTU21D;68546;59.142;37.948;2023-03-20T09:14:11;9.31;39.07
79140;HTU21D;68546;59.142;37.948;2023-03-20T09:16:37;9.36;39.16
79140;HTU21D;68546;59.142;37.948;2023-03-20T09:19:04;9.44;39.10
79140;HTU21D;68546;59.142;37.948;2023-03-20T09:21:31;9.49;39.19
79140;HTU21D;68546;59.142;37.948;2023-03-20T09:23:57;9.59;39.16
79140;HTU21D;68546;59.142;37.948;2023-03-20T09:26:23;9.66;39.16
79140;HTU21D;68546;59.142;37.948;2023-03-20T09:28:49;9.71;39.10
79140;HTU21D;68546;59.142;37.948;2023-03-20T09:31:16;9.80;39.01
79140;HTU21D;68546;59.142;37.948;2023-03-20T09:33:42;9.85;38.86
79140;HTU21D;68546;59.142;37.948;2023-03-20T09:36:09;9.92;38.80
79140;HTU21D;68546;59.142;37.948;2023-03-20T09:38:37;10.01;38.71
79140;HTU21D;68546;59.142;37.948;2023-03-20T09:41:04;10.09;38.72
79140;HTU21D;68546;59.142;37.948;2023-03-20T09:46:35;10.28;38.69
79140;HTU21D;68546;59.142;37.948;2023-03-20T09:51:54;10.41;38.30
79140;HTU21D;68546;59.142;37.948;2023-03-20T09:54:35;10.46;38.25
79140;HTU21D;68546;59.142;37.948;2023-03-20T09:57:03;10.49;38.12
79140;HTU21D;68546;59.142;37.948;2023-03-20T09:59:33;10.55;38.04
79140;HTU21D;68546;59.142;37.948;2023-03-20T10:02:20;10.58;38.01
79140;HTU21D;68546;59.142;37.948;2023-03-20T10:04:54;10.62;37.88
79140;HTU21D;68546;59.142;37.948;2023-03-20T10:07:20;10.65;37.83
79140;HTU21D;68546;59.142;37.948;2023-03-20T10:09:47;10.68;37.83
79140;HTU21D;68546;59.142;37.948;2023-03-20T10:12:25;10.70;37.75
79140;HTU21D;68546;59.142;37.948;2023-03-20T10:20:43;10.79;37.53
79140;HTU21D;68546;59.142;37.948;2023-03-20T10:25:53;10.80;37.40
79140;HTU21D;68546;59.142;37.948;2023-03-20T10:31:54;10.84;37.56
79140;HTU21D;68546;59.142;37.948;2023-03-20T10:34:47;10.87;37.60
79140;HTU21D;68546;59.142;37.948;2023-03-20T10:42:36;10.90;37.55
79140;HTU21D;68546;59.142;37.948;2023-03-20T10:45:08;10.92;37.53
79140;HTU21D;68546;59.142;37.948;2023-03-20T10:47:41;10.94;37.59
79140;HTU21D;68546;59.142;37.948;2023-03-20T10:50:15;10.99;37.54
79140;HTU21D;68546;59.142;37.948;2023-03-20T10:52:43;11.01;37.57
79140;HTU21D;68546;59.142;37.948;2023-03-20T10:55:17;11.04;37.46
79140;HTU21D;68546;59.142;37.948;2023-03-20T10:58:14;11.09;37.56
79140;HTU21D;68546;59.142;37.948;2023-03-20T11:00:42;11.11;37.47
79140;HTU21D;68546;59.142;37.948;2023-03-20T11:03:21;11.16;37.51
79140;HTU21D;68546;59.142;37.948;2023-03-20T11:06:02;11.20;37.36
79140;HTU21D;68546;59.142;37.948;2023-03-20T11:08:35;11.22;37.25
79140;HTU21D;68546;59.142;37.948;2023-03-20T11:11:03;11.23;37.22
79140;HTU21D;68546;59.142;37.948;2023-03-20T11:13:35;11.24;37.16
79140;HTU21D;68546;59.142;37.948;2023-03-20T11:16:18;11.23;37.21
79140;HTU21D;68546;59.142;37.948;2023-03-20T11:18:46;11.23;37.15
79140;HTU21D;68546;59.142;37.948;2023-03-20T11:21:36;11.20;37.18
79140;HTU21D;68546;59.142;37.948;2023-03-20T11:24:41;11.20;37.21
79140;HTU21D;68546;59.142;37.948;2023-03-20T11:27:16;11.23;37.11
79140;HTU21D;68546;59.142;37.948;2023-03-20T11:29:46;11.23;37.17
79140;HTU21D;68546;59.142;37.948;2023-03-20T11:32:27;11.24;37.20
79140;HTU21D;68546;59.142;37.948;2023-03-20T11:34:55;11.27;37.16
79140;HTU21D;68546;59.142;37.948;2023-03-20T11:37:33;11.28;37.14
79140;HTU21D;68546;59.142;37.948;2023-03-20T11:45:22;11.33;37.28
79140;HTU21D;68546;59.142;37.948;2023-03-20T11:47:53;11.39;37.31
79140;HTU21D;68546;59.142;37.948;2023-03-20T11:50:44;11.43;37.30
79140;HTU21D;68546;59.142;37.948;2023-03-20T11:53:22;11.42;37.13
79140;HTU21D;68546;59.142;37.948;2023-03-20T11:56:20;11.34;36.85
79140;HTU21D;68546;59.142;37.948;2023-03-20T11:59:00;11.20;36.64
79140;HTU21D;68546;59.142;37.948;2023-03-20T12:01:28;11.05;36.59
79140;HTU21D;68546;59.142;37.948;2023-03-20T12:06:26;10.77;36.74
79140;HTU21D;68546;59.142;37.948;2023-03-20T12:09:02;10.62;36.93
79140;HTU21D;68546;59.142;37.948;2023-03-20T12:11:40;10.52;37.15
79140;HTU21D;68546;59.142;37.948;2023-03-20T12:14:17;10.45;37.40
79140;HTU21D;68546;59.142;37.948;2023-03-20T12:16:49;10.42;37.59
79140;HTU21D;68546;59.142;37.948;2023-03-20T12:19:21;10.41;37.76
79140;HTU21D;68546;59.142;37.948;2023-03-20T12:24:38;10.44;37.80
79140;HTU21D;68546;59.142;37.948;2023-03-20T12:27:20;10.45;37.80
79140;HTU21D;68546;59.142;37.948;2023-03-20T12:30:17;10.46;37.81
79140;HTU21D;68546;59.142;37.948;2023-03-20T12:33:19;10.45;37.79
79140;HTU21D;68546;59.142;37.948;2023-03-20T12:35:49;10.46;37.79
79140;HTU21D;68546;59.142;37.948;2023-03-20T12:38:30;10.49;37.83
79140;HTU21D;68546;59.142;37.948;2023-03-20T12:44:02;10.53;37.82
79140;HTU21D;68546;59.142;37.948;2023-03-20T12:46:50;10.52;37.81
79140;HTU21D;68546;59.142;37.948;2023-03-20T13:00:15;10.56;37.75
79140;HTU21D;68546;59.142;37.948;2023-03-20T13:11:25;10.53;37.77
79140;HTU21D;68546;59.142;37.948;2023-03-20T13:14:24;10.50;37.75
79140;HTU21D;68546;59.142;37.948;2023-03-20T13:17:08;10.45;37.68
79140;HTU21D;68546;59.142;37.948;2023-03-20T13:32:23;10.21;37.61
79140;HTU21D;68546;59.142;37.948;2023-03-20T13:38:10;10.03;37.72
79140;HTU21D;68546;59.142;37.948;2023-03-20T13:40:40;9.93;37.88
79140;HTU21D;68546;59.142;37.948;2023-03-20T13:43:15;9.86;38.01
79140;HTU21D;68546;59.142;37.948;2023-03-20T13:45:47;9.82;38.17
79140;HTU21D;68546;59.142;37.948;2023-03-20T13:48:40;9.79;38.27
79140;HTU21D;68546;59.142;37.948;2023-03-20T14:01:31;9.78;38.91
79140;HTU21D;68546;59.142;37.948;2023-03-20T14:04:01;9.78;38.93
79140;HTU21D;68546;59.142;37.948;2023-03-20T14:08:57;9.77;39.04
79140;HTU21D;68546;59.142;37.948;2023-03-20T14:11:28;9.76;39.14
79140;HTU21D;68546;59.142;37.948;2023-03-20T14:14:21;9.75;39.16
79140;HTU21D;68546;59.142;37.948;2023-03-20T14:17:23;9.72;39.21
79140;HTU21D;68546;59.142;37.948;2023-03-20T14:19:48;9.67;39.32
79140;HTU21D;68546;59.142;37.948;2023-03-20T14:22:21;9.65;39.43
79140;HTU21D;68546;59.142;37.948;2023-03-20T14:25:34;9.61;39.50
79140;HTU21D;68546;59.142;37.948;2023-03-20T14:27:57;9.56;39.55
79140;HTU21D;68546;59.142;37.948;2023-03-20T14:33:22;9.48;39.84
79140;HTU21D;68546;59.142;37.948;2023-03-20T14:35:48;9.44;39.99
79140;HTU21D;68546;59.142;37.948;2023-03-20T14:44:37;9.32;40.25
79140;HTU21D;68546;59.142;37.948;2023-03-20T14:50:21;9.23;40.52
79140;HTU21D;68546;59.142;37.948;2023-03-20T14:58:37;9.14;40.71
79140;HTU21D;68546;59.142;37.948;2023-03-20T15:01:57;9.10;41.00
79140;HTU21D;68546;59.142;37.948;2023-03-20T15:04:32;9.08;40.98
79140;HTU21D;68546;59.142;37.948;2023-03-20T15:07:10;9.04;41.20
79140;HTU21D;68546;59.142;37.948;2023-03-20T15:09:44;9.00;41.37
79140;HTU21D;68546;59.142;37.948;2023-03-20T15:12:15;8.98;41.42
79140;HTU21D;68546;59.142;37.948;2023-03-20T15:15:00;8.94;41.55
79140;HTU21D;68546;59.142;37.948;2023-03-20T15:20:22;8.87;41.74
79140;HTU21D;68546;59.142;37.948;2023-03-20T15:22:54;8.82;41.85
79140;HTU21D;68546;59.142;37.948;2023-03-20T15:25:27;8.78;42.06
79140;HTU21D;68546;59.142;37.948;2023-03-20T15:27:54;8.75;42.11
79140;HTU21D;68546;59.142;37.948;2023-03-20T15:30:21;8.72;42.23
79140;HTU21D;68546;59.142;37.948;2023-03-20T15:32:50;8.68;42.34
79140;HTU21D;68546;59.142;37.948;2023-03-20T15:35:22;8.66;42.52
79140;HTU21D;68546;59.142;37.948;2023-03-20T15:37:50;8.64;42.60
79140;HTU21D;68546;59.142;37.948;2023-03-20T15:40:28;8.61;42.79
79140;HTU21D;68546;59.142;37.948;2023-03-20T15:43:02;8.60;42.90
79140;HTU21D;68546;59.142;37.948;2023-03-20T15:45:34;8.57;43.05
79140;HTU21D;68546;59.142;37.948;2023-03-20T15:48:05;8.55;43.20
79140;HTU21D;68546;59.142;37.948;2023-03-20T15:50:33;8.52;43.22
79140;HTU21D;68546;59.142;37.948;2023-03-20T15:53:00;8.49;43.24
79140;HTU21D;68546;59.142;37.948;2023-03-20T15:55:28;8.45;43.45
79140;HTU21D;68546;59.142;37.948;2023-03-20T15:57:56;8.43;43.57
79140;HTU21D;68546;59.142;37.948;2023-03-20T16:00:35;8.39;43.59
79140;HTU21D;68546;59.142;37.948;2023-03-20T16:03:09;8.36;43.76
79140;HTU21D;68546;59.142;37.948;2023-03-20T16:05:36;8.33;43.91
79140;HTU21D;68546;59.142;37.948;2023-03-20T16:08:32;8.31;43.81
79140;HTU21D;68546;59.142;37.948;2023-03-20T16:11:14;8.28;44.07
79140;HTU21D;68546;59.142;37.948;2023-03-20T16:13:44;8.23;44.16
79140;HTU21D;68546;59.142;37.948;2023-03-20T16:16:22;8.21;44.32
79140;HTU21D;68546;59.142;37.948;2023-03-20T16:18:50;8.16;44.39
79140;HTU21D;68546;59.142;37.948;2023-03-20T16:21:23;8.15;44.57
79140;HTU21D;68546;59.142;37.948;2023-03-20T16:23:53;8.12;44.70
79140;HTU21D;68546;59.142;37.948;2023-03-20T16:26:23;8.07;44.77
79140;HTU21D;68546;59.142;37.948;2023-03-20T16:28:57;8.05;44.89
79140;HTU21D;68546;59.142;37.948;2023-03-20T16:31:29;8.02;45.06
79140;HTU21D;68546;59.142;37.948;2023-03-20T16:33:58;7.98;45.12
79140;HTU21D;68546;59.142;37.948;2023-03-20T16:36:34;7.97;45.33
79140;HTU21D;68546;59.142;37.948;2023-03-20T16:39:18;7.96;45.22
79140;HTU21D;68546;59.142;37.948;2023-03-20T16:41:46;7.90;45.35
79140;HTU21D;68546;59.142;37.948;2023-03-20T16:44:20;7.89;45.55
79140;HTU21D;68546;59.142;37.948;2023-03-20T16:51:59;7.81;45.79
79140;HTU21D;68546;59.142;37.948;2023-03-20T16:54:28;7.78;45.91
79140;HTU21D;68546;59.142;37.948;2023-03-20T16:56:57;7.76;46.05
79140;HTU21D;68546;59.142;37.948;2023-03-20T16:59:26;7.74;46.02
79140;HTU21D;68546;59.142;37.948;2023-03-20T17:01:58;7.73;46.16
79140;HTU21D;68546;59.142;37.948;2023-03-20T17:04:33;7.71;46.25
79140;HTU21D;68546;59.142;37.948;2023-03-20T17:07:11;7.69;46.39
79140;HTU21D;68546;59.142;37.948;2023-03-20T17:09:52;7.68;46.32
79140;HTU21D;68546;59.142;37.948;2023-03-20T17:12:22;7.63;46.52
79140;HTU21D;68546;59.142;37.948;2023-03-20T17:14:49;7.61;46.52
79140;HTU21D;68546;59.142;37.948;2023-03-20T17:17:18;7.57;46.67
79140;HTU21D;68546;59.142;37.948;2023-03-20T17:19:47;7.55;46.74
79140;HTU21D;68546;59.142;37.948;2023-03-20T17:22:17;7.52;46.80
79140;HTU21D;68546;59.142;37.948;2023-03-20T17:24:44;7.48;46.89
79140;HTU21D;68546;59.142;37.948;2023-03-20T17:27:13;7.46;46.98
79140;HTU21D;68546;59.142;37.948;2023-03-20T17:29:40;7.43;47.00
79140;HTU21D;68546;59.142;37.948;2023-03-20T17:32:12;7.40;47.16
79140;HTU21D;68546;59.142;37.948;2023-03-20T17:34:40;7.38;47.25
79140;HTU21D;68546;59.142;37.948;2023-03-20T17:37:23;7.34;47.35
79140;HTU21D;68546;59.142;37.948;2023-03-20T17:39:50;7.32;47.38
79140;HTU21D;68546;59.142;37.948;2023-03-20T17:42:22;7.31;47.50
79140;HTU21D;68546;59.142;37.948;2023-03-20T17:44:52;7.29;47.60
79140;HTU21D;68546;59.142;37.948;2023-03-20T17:47:21;7.28;47.73
79140;HTU21D;68546;59.142;37.948;2023-03-20T17:49:48;7.27;47.77
79140;HTU21D;68546;59.142;37.948;2023-03-20T17:52:18;7.25;47.92
79140;HTU21D;68546;59.142;37.948;2023-03-20T17:54:45;7.26;47.98
79140;HTU21D;68546;59.142;37.948;2023-03-20T17:57:27;7.25;48.00
79140;HTU21D;68546;59.142;37.948;2023-03-20T17:59:56;7.25;48.19
79140;HTU21D;68546;59.142;37.948;2023-03-20T18:02:22;7.24;48.23
79140;HTU21D;68546;59.142;37.948;2023-03-20T18:04:49;7.24;48.30
79140;HTU21D;68546;59.142;37.948;2023-03-20T18:07:18;7.26;48.36
79140;HTU21D;68546;59.142;37.948;2023-03-20T18:09:46;7.24;48.44
79140;HTU21D;68546;59.142;37.948;2023-03-20T18:12:16;7.23;48.50
79140;HTU21D;68546;59.142;37.948;2023-03-20T18:14:45;7.25;48.57